createdAt,value
2019-04-30T17:36:15.158Z,21.68
2019-04-30T17:38:44.461Z,22.80
2019-04-30T17:41:13.785Z,25.12
2019-04-30T17:43:43.099Z,31.37
2019-04-30T17:46:12.406Z,22.32
2019-04-30T17:48:41.741Z,26.30
2019-04-30T17:51:11.042Z,24.63
2019-04-30T17:53:41.998Z,21.20
2019-04-30T17:56:11.302Z,22.60
2019-04-30T17:58:40.634Z,20.12
2019-04-30T18:01:10.446Z,24.18
2019-04-30T18:03:39.749Z,21.17
2019-04-30T18:06:09.086Z,21.17
2019-04-30T18:10:26.883Z,26.20
2019-04-30T18:12:56.205Z,19.23
2019-04-30T18:15:27.143Z,30.90
2019-04-30T18:17:58.120Z,23.87
2019-04-30T18:20:39.201Z,22.37
2019-04-30T18:23:26.368Z,25.72
2019-04-30T18:28:39.906Z,25.02
2019-04-30T18:31:10.808Z,25.00
2019-04-30T18:33:41.741Z,23.00
2019-04-30T18:36:13.125Z,24.23
2019-04-30T18:38:44.054Z,21.52
2019-04-30T18:41:14.967Z,23.50
2019-04-30T18:43:45.888Z,27.35
2019-04-30T18:46:16.921Z,21.05
2019-04-30T18:48:49.696Z,22.07
2019-04-30T18:51:35.870Z,26.50
2019-04-30T18:53:53.327Z,21.40
2019-04-30T18:56:24.278Z,23.35
2019-04-30T18:58:55.352Z,18.90
2019-04-30T19:01:26.286Z,21.17
2019-04-30T19:03:58.448Z,26.48
2019-04-30T19:06:29.901Z,19.20
2019-04-30T19:09:19.680Z,28.27
2019-04-30T19:12:11.242Z,21.45
2019-04-30T19:14:52.917Z,23.77
2019-04-30T19:17:31.516Z,26.73
2019-04-30T19:20:16.020Z,22.42
2019-04-30T19:22:46.953Z,24.52
2019-04-30T19:25:19.085Z,23.85
2019-04-30T19:27:50.174Z,31.20
2019-04-30T19:30:21.073Z,23.50
2019-04-30T19:32:51.979Z,27.05
2019-04-30T19:35:22.900Z,24.55
2019-04-30T19:37:53.846Z,30.10
2019-04-30T19:40:24.750Z,19.35
2019-04-30T19:42:55.703Z,24.87
2019-04-30T19:45:26.608Z,25.25
2019-04-30T19:47:58.655Z,28.40
2019-04-30T19:50:29.713Z,27.37
2019-04-30T19:53:00.622Z,22.27
2019-04-30T19:55:31.567Z,29.42
2019-04-30T19:58:02.496Z,24.55
2019-04-30T20:00:33.857Z,22.42
2019-04-30T20:03:04.768Z,26.97
2019-04-30T20:05:35.704Z,23.42
2019-04-30T20:08:06.621Z,25.92
2019-04-30T20:10:39.715Z,27.98
2019-04-30T20:13:10.923Z,26.30
2019-04-30T20:15:41.949Z,25.77
2019-04-30T20:18:13.093Z,24.65
2019-04-30T20:20:45.682Z,32.13
2019-04-30T20:23:16.602Z,29.23
2019-04-30T20:25:47.515Z,25.35
2019-04-30T20:28:18.436Z,26.60
2019-04-30T20:30:49.356Z,37.10
2019-04-30T20:33:20.275Z,25.92
2019-04-30T20:35:51.186Z,25.50
2019-04-30T20:38:27.244Z,27.35
2019-04-30T20:41:02.778Z,28.55
2019-04-30T20:43:30.815Z,26.97
2019-04-30T20:46:01.734Z,27.98
2019-04-30T20:48:33.717Z,26.30
2019-04-30T20:51:04.632Z,29.07
2019-04-30T20:53:35.542Z,27.85
2019-04-30T20:56:06.442Z,31.42
2019-04-30T20:58:39.098Z,29.23
2019-04-30T21:01:10.186Z,28.65
2019-04-30T21:03:41.088Z,30.00
2019-04-30T21:06:12.012Z,26.65
2019-04-30T21:08:42.926Z,34.67
2019-04-30T21:11:13.826Z,29.20
2019-04-30T21:13:44.732Z,29.82
2019-04-30T21:16:15.707Z,31.27
2019-04-30T21:18:46.614Z,31.62
2019-04-30T21:21:18.862Z,35.10
2019-04-30T21:23:50.142Z,34.25
2019-04-30T21:26:21.047Z,37.40
2019-04-30T21:28:51.952Z,40.60
2019-04-30T21:31:30.278Z,44.55
2019-04-30T21:34:19.608Z,43.20
2019-04-30T21:36:50.596Z,41.18
2019-04-30T21:39:21.497Z,47.20
2019-04-30T21:41:52.435Z,45.08
2019-04-30T21:44:23.374Z,50.60
2019-04-30T21:46:54.298Z,49.33
2019-04-30T21:49:25.227Z,54.18
2019-04-30T21:51:56.186Z,46.42
2019-04-30T21:54:28.345Z,52.03
2019-04-30T21:56:59.701Z,46.10
2019-04-30T21:59:30.635Z,52.95
2019-04-30T22:02:02.009Z,49.23
2019-04-30T22:04:33.987Z,53.10
2019-04-30T22:07:04.891Z,52.50
2019-04-30T22:09:35.891Z,51.42
2019-04-30T22:12:06.793Z,60.52
2019-04-30T22:14:37.726Z,63.98
2019-04-30T22:17:09.311Z,58.23
2019-04-30T22:19:40.252Z,62.05
2019-04-30T22:22:11.157Z,56.73
2019-04-30T22:24:42.072Z,58.92
2019-04-30T22:27:13.005Z,64.15
2019-04-30T22:29:43.905Z,55.98
2019-04-30T22:32:14.824Z,63.17
2019-04-30T22:34:45.723Z,64.05
2019-04-30T22:37:16.658Z,60.73
2019-04-30T22:39:54.844Z,61.88
2019-04-30T22:42:30.864Z,67.45
2019-04-30T22:45:02.489Z,66.05
2019-04-30T22:47:34.766Z,66.45
2019-04-30T22:50:07.479Z,62.85
2019-04-30T22:52:38.387Z,61.45
2019-04-30T22:55:09.366Z,66.97
2019-04-30T22:57:40.275Z,61.45
2019-04-30T23:00:12.816Z,68.33
2019-04-30T23:02:48.412Z,69.60
2019-04-30T23:05:19.332Z,66.75
2019-04-30T23:07:50.255Z,70.40
2019-04-30T23:10:21.162Z,68.10
2019-04-30T23:12:52.068Z,71.00
2019-04-30T23:15:23.157Z,75.10
2019-04-30T23:17:54.066Z,71.50
2019-04-30T23:20:25.072Z,70.90
2019-04-30T23:22:55.990Z,71.55
2019-04-30T23:25:26.894Z,76.35
2019-04-30T23:27:57.803Z,79.40
2019-04-30T23:30:28.992Z,80.45
2019-04-30T23:32:59.900Z,84.77
2019-04-30T23:35:30.809Z,75.70
2019-04-30T23:38:01.750Z,83.12
2019-04-30T23:40:52.488Z,89.17
2019-04-30T23:43:23.542Z,84.77
2019-04-30T23:45:54.456Z,85.17
2019-04-30T23:48:25.393Z,84.30
2019-04-30T23:50:56.300Z,94.72
2019-04-30T23:53:27.234Z,91.47
2019-04-30T23:55:58.203Z,85.75
2019-04-30T23:58:29.180Z,87.25
